createdAt,value
2023-09-14T00:00:38.601Z,52.53
2023-09-14T00:01:38.557Z,52.69
2023-09-14T00:02:38.502Z,63.16
2023-09-14T00:03:38.562Z,56.56
2023-09-14T00:04:38.743Z,55.11
2023-09-14T00:05:38.613Z,52.69
2023-09-14T00:06:38.479Z,52.21
2023-09-14T00:07:38.655Z,52.21
2023-09-14T00:08:38.473Z,51.88
2023-09-14T00:09:38.668Z,51.88
2023-09-14T00:10:38.479Z,52.37
2023-09-14T00:11:38.808Z,52.37
2023-09-14T00:12:38.507Z,51.88
2023-09-14T00:13:38.519Z,52.53
2023-09-14T00:14:38.438Z,52.05
2023-09-14T00:15:38.598Z,52.05
2023-09-14T00:16:38.564Z,52.53
2023-09-14T00:17:38.564Z,52.53
2023-09-14T00:18:38.421Z,54.30
2023-09-14T00:19:38.511Z,52.05
2023-09-14T00:20:38.404Z,52.69
2023-09-14T00:21:38.555Z,52.21
2023-09-14T00:22:38.412Z,52.21
2023-09-14T00:23:38.429Z,52.85
2023-09-14T00:24:38.406Z,52.05
2023-09-14T00:25:38.538Z,52.37
2023-09-14T00:26:38.345Z,52.05
2023-09-14T00:27:38.515Z,52.21
2023-09-14T00:28:38.372Z,56.72
2023-09-14T00:29:38.486Z,52.05
2023-09-14T00:30:38.348Z,52.21
2023-09-14T00:31:38.442Z,52.85
2023-09-14T00:32:38.320Z,53.98
2023-09-14T00:33:38.696Z,56.24
2023-09-14T00:34:38.363Z,52.69
2023-09-14T00:35:38.414Z,52.21
2023-09-14T00:36:38.303Z,52.69
2023-09-14T00:37:38.340Z,51.88
2023-09-14T00:38:38.277Z,53.50
2023-09-14T00:39:38.490Z,52.21
2023-09-14T00:40:38.261Z,52.21
2023-09-14T00:41:38.311Z,52.05
2023-09-14T00:42:38.333Z,52.37
2023-09-14T00:43:38.357Z,52.37
2023-09-14T00:44:38.219Z,52.37
2023-09-14T00:45:38.360Z,52.05
2023-09-14T00:46:38.250Z,52.69
2023-09-14T00:47:38.339Z,52.21
2023-09-14T00:48:38.320Z,52.53
2023-09-14T00:49:38.253Z,54.79
2023-09-14T00:50:38.180Z,56.72
2023-09-14T00:51:38.187Z,52.85
2023-09-14T00:52:38.186Z,62.84
2023-09-14T00:53:38.313Z,52.85
2023-09-14T00:54:38.159Z,57.36
2023-09-14T00:55:38.492Z,56.24
2023-09-14T00:56:38.140Z,55.75
2023-09-14T00:57:38.217Z,53.98
2023-09-14T00:58:38.158Z,56.72
2023-09-14T00:59:38.269Z,52.69
2023-09-14T01:00:38.184Z,52.53
2023-09-14T01:01:38.365Z,52.85
2023-09-14T01:02:38.231Z,52.21
2023-09-14T01:03:38.199Z,52.53
2023-09-14T01:04:38.281Z,52.85
2023-09-14T01:05:38.236Z,52.85
2023-09-14T01:06:38.116Z,52.69
2023-09-14T01:07:38.201Z,56.40
2023-09-14T01:08:38.050Z,53.17
2023-09-14T01:09:38.222Z,52.69
2023-09-14T01:10:38.066Z,52.53
2023-09-14T01:11:38.079Z,52.21
2023-09-14T01:12:38.076Z,64.78
2023-09-14T01:13:38.159Z,53.33
2023-09-14T01:14:38.010Z,52.69
2023-09-14T01:15:38.166Z,53.17
2023-09-14T01:16:38.079Z,52.85
2023-09-14T01:17:38.139Z,59.94
2023-09-14T01:18:38.008Z,52.21
2023-09-14T01:19:38.389Z,54.79
2023-09-14T01:20:37.991Z,54.62
2023-09-14T01:21:38.872Z,52.21
2023-09-14T01:22:37.984Z,52.37
2023-09-14T01:23:38.118Z,53.17
2023-09-14T01:24:37.976Z,52.37
2023-09-14T01:25:38.010Z,52.53
2023-09-14T01:26:37.918Z,52.69
2023-09-14T01:27:37.997Z,52.21
2023-09-14T01:28:37.952Z,52.21
2023-09-14T01:29:38.073Z,56.88
2023-09-14T01:30:37.921Z,55.59
2023-09-14T01:31:37.955Z,52.37
2023-09-14T01:32:37.946Z,52.85
2023-09-14T01:33:37.938Z,52.21
2023-09-14T01:34:37.931Z,53.17
2023-09-14T01:35:37.941Z,53.33
2023-09-14T01:36:37.983Z,53.01
2023-09-14T01:37:37.929Z,52.21
2023-09-14T01:38:37.874Z,53.82
2023-09-14T01:39:37.952Z,53.33
2023-09-14T01:40:37.873Z,52.37
2023-09-14T01:41:38.239Z,61.07
2023-09-14T01:42:37.827Z,68.32
2023-09-14T01:43:37.863Z,52.53
2023-09-14T01:44:37.807Z,52.85
2023-09-14T01:45:38.470Z,52.53
2023-09-14T01:46:37.854Z,53.01
2023-09-14T01:47:37.974Z,52.21
2023-09-14T01:48:37.785Z,52.21
2023-09-14T01:49:38.522Z,52.85
2023-09-14T01:50:37.772Z,52.21
2023-09-14T01:51:37.781Z,52.69
2023-09-14T01:52:37.778Z,52.53
2023-09-14T01:53:38.797Z,53.17
2023-09-14T01:54:37.758Z,55.11
2023-09-14T01:55:38.500Z,52.53
2023-09-14T01:56:37.732Z,52.37
2023-09-14T01:57:37.753Z,52.69
2023-09-14T01:58:37.754Z,52.37
2023-09-14T01:59:37.718Z,54.95
2023-09-14T02:00:37.693Z,52.69
2023-09-14T02:01:37.728Z,52.05
2023-09-14T02:02:37.755Z,52.85
2023-09-14T02:03:37.675Z,52.37
2023-09-14T02:04:37.726Z,52.37
2023-09-14T02:05:37.648Z,52.69
2023-09-14T02:06:37.689Z,52.69
2023-09-14T02:07:38.529Z,52.37
2023-09-14T02:08:37.642Z,52.53
2023-09-14T02:09:37.666Z,53.01
2023-09-14T02:10:37.651Z,52.21
2023-09-14T02:11:37.631Z,52.37
2023-09-14T02:12:37.627Z,52.53
2023-09-14T02:13:37.589Z,52.37
2023-09-14T02:14:37.576Z,52.21
2023-09-14T02:15:37.595Z,52.69
2023-09-14T02:16:37.660Z,52.05
2023-09-14T02:17:37.656Z,52.21
2023-09-14T02:18:37.630Z,52.21
2023-09-14T02:19:37.536Z,52.21
2023-09-14T02:20:37.948Z,52.69
2023-09-14T02:21:37.547Z,53.01
2023-09-14T02:22:37.608Z,52.85
2023-09-14T02:23:37.558Z,53.66
2023-09-14T02:24:37.537Z,52.53
2023-09-14T02:25:37.537Z,52.05
2023-09-14T02:26:37.509Z,58.81
2023-09-14T02:27:37.523Z,62.84
2023-09-14T02:28:37.518Z,56.72
2023-09-14T02:29:37.478Z,53.01
2023-09-14T02:30:37.467Z,52.21
2023-09-14T02:31:37.544Z,52.21
2023-09-14T02:32:37.506Z,52.85
2023-09-14T02:33:37.558Z,55.11
2023-09-14T02:34:37.519Z,74.77
2023-09-14T02:35:37.501Z,58.17
2023-09-14T02:36:37.446Z,52.85
2023-09-14T02:37:37.425Z,53.66
2023-09-14T02:38:37.416Z,54.30
2023-09-14T02:39:37.428Z,53.82
2023-09-14T02:40:37.435Z,52.69
2023-09-14T02:41:37.390Z,52.53
2023-09-14T02:42:37.388Z,52.21
2023-09-14T02:43:37.374Z,53.82
2023-09-14T02:44:37.357Z,72.67
2023-09-14T02:45:37.397Z,63.33
2023-09-14T02:46:37.553Z,52.53
2023-09-14T02:47:37.360Z,52.69
2023-09-14T02:48:37.339Z,52.69
2023-09-14T02:49:37.339Z,52.05
2023-09-14T02:50:37.310Z,52.05
2023-09-14T02:51:37.337Z,53.33
2023-09-14T02:52:37.348Z,65.90
2023-09-14T02:53:37.291Z,53.82
2023-09-14T02:54:37.318Z,58.81
2023-09-14T02:55:37.277Z,52.37
2023-09-14T02:56:37.273Z,52.69
2023-09-14T02:57:37.299Z,52.37
2023-09-14T02:58:37.332Z,52.21
2023-09-14T02:59:37.275Z,61.71
2023-09-14T03:00:37.285Z,52.85
2023-09-14T03:01:37.254Z,51.88
2023-09-14T03:02:37.291Z,52.69
2023-09-14T03:03:37.351Z,52.37
2023-09-14T03:04:37.293Z,52.37
2023-09-14T03:05:37.221Z,52.53
2023-09-14T03:06:37.233Z,60.10
2023-09-14T03:07:37.202Z,61.23
2023-09-14T03:08:37.223Z,52.69
2023-09-14T03:09:37.215Z,52.37
2023-09-14T03:10:37.313Z,52.53
2023-09-14T03:11:37.183Z,52.53
2023-09-14T03:12:37.242Z,52.53
2023-09-14T03:13:37.188Z,66.71
2023-09-14T03:14:37.183Z,54.79
2023-09-14T03:15:37.220Z,53.17
2023-09-14T03:16:37.348Z,54.14
2023-09-14T03:17:37.158Z,62.52
2023-09-14T03:18:37.184Z,53.82
2023-09-14T03:19:37.131Z,56.88
2023-09-14T03:20:37.134Z,52.69
2023-09-14T03:21:37.148Z,52.69
2023-09-14T03:22:37.136Z,52.37
2023-09-14T03:23:37.101Z,54.62
2023-09-14T03:24:37.231Z,53.01
2023-09-14T03:25:37.055Z,71.22
2023-09-14T03:26:37.071Z,52.85
2023-09-14T03:27:37.084Z,53.17
2023-09-14T03:28:37.107Z,68.32
2023-09-14T03:29:37.058Z,56.40
2023-09-14T03:30:37.074Z,66.06
2023-09-14T03:31:37.090Z,53.50
2023-09-14T03:32:37.062Z,60.26
2023-09-14T03:33:37.070Z,56.07
2023-09-14T03:34:37.064Z,52.69
2023-09-14T03:35:37.024Z,52.85
2023-09-14T03:36:37.077Z,53.01
2023-09-14T03:37:37.008Z,58.17
2023-09-14T03:38:37.006Z,58.17
2023-09-14T03:39:37.013Z,53.66
2023-09-14T03:40:37.017Z,69.29
2023-09-14T03:41:36.984Z,53.50
2023-09-14T03:42:37.036Z,59.94
2023-09-14T03:43:36.972Z,53.17
2023-09-14T03:44:36.961Z,52.69
2023-09-14T03:45:37.046Z,52.53
2023-09-14T03:46:37.061Z,67.19
2023-09-14T03:47:36.994Z,60.59
2023-09-14T03:48:36.950Z,54.79
2023-09-14T03:49:36.898Z,53.17
2023-09-14T03:50:36.945Z,59.14
2023-09-14T03:51:36.964Z,58.33
2023-09-14T03:52:37.062Z,64.45
2023-09-14T03:53:36.905Z,61.07
2023-09-14T03:54:36.920Z,58.33
2023-09-14T03:55:36.869Z,53.82
2023-09-14T03:56:36.860Z,54.62
2023-09-14T03:57:36.938Z,66.06
2023-09-14T03:58:36.930Z,66.55
2023-09-14T03:59:36.846Z,63.81
2023-09-14T04:00:36.947Z,54.14
2023-09-14T04:01:36.861Z,57.36
2023-09-14T04:02:36.886Z,56.40
2023-09-14T04:03:36.904Z,53.33
2023-09-14T04:04:36.890Z,52.85
2023-09-14T04:05:36.845Z,66.39
2023-09-14T04:06:36.834Z,70.74
2023-09-14T04:07:36.782Z,63.97
2023-09-14T04:08:36.786Z,57.20
2023-09-14T04:09:36.827Z,60.59
2023-09-14T04:10:36.815Z,53.01
2023-09-14T04:11:36.776Z,58.33
2023-09-14T04:12:36.780Z,54.14
2023-09-14T04:13:36.777Z,53.33
2023-09-14T04:14:36.757Z,56.07
2023-09-14T04:15:36.726Z,71.22
2023-09-14T04:16:36.880Z,56.07
2023-09-14T04:17:36.752Z,57.85
2023-09-14T04:18:36.847Z,58.97
2023-09-14T04:19:36.719Z,68.48
2023-09-14T04:20:36.698Z,56.56
2023-09-14T04:21:36.739Z,64.61
2023-09-14T04:22:36.754Z,55.75
2023-09-14T04:23:36.690Z,55.27
2023-09-14T04:24:36.685Z,72.67
2023-09-14T04:25:36.653Z,70.90
2023-09-14T04:26:36.645Z,62.84
2023-09-14T04:27:36.688Z,68.64
2023-09-14T04:28:36.711Z,67.51
2023-09-14T04:29:36.627Z,55.11
2023-09-14T04:30:36.645Z,55.11
2023-09-14T04:31:36.677Z,57.04
2023-09-14T04:32:36.625Z,55.11
2023-09-14T04:33:36.607Z,60.75
2023-09-14T04:34:36.607Z,61.39
2023-09-14T04:35:36.572Z,58.17
2023-09-14T04:36:36.604Z,62.20
2023-09-14T04:37:36.546Z,68.32
2023-09-14T04:38:36.563Z,55.27
2023-09-14T04:39:36.561Z,60.42
2023-09-14T04:40:36.584Z,65.10
2023-09-14T04:41:36.520Z,67.03
2023-09-14T04:42:36.530Z,55.59
2023-09-14T04:43:36.523Z,53.98
2023-09-14T04:44:36.496Z,54.79
2023-09-14T04:45:36.590Z,58.01
2023-09-14T04:46:36.723Z,58.17
2023-09-14T04:47:36.508Z,68.80
2023-09-14T04:48:36.681Z,69.77
2023-09-14T04:49:36.461Z,66.39
2023-09-14T04:50:36.483Z,69.45
2023-09-14T04:51:36.487Z,68.80
2023-09-14T04:52:36.521Z,64.94
2023-09-14T04:53:36.442Z,70.58
2023-09-14T04:54:36.461Z,65.26
2023-09-14T04:55:36.411Z,61.71
2023-09-14T04:56:36.428Z,64.13
2023-09-14T04:57:36.579Z,65.10
2023-09-14T04:58:36.484Z,65.10
2023-09-14T04:59:36.414Z,70.58
2023-09-14T05:00:36.426Z,60.10
2023-09-14T05:01:36.430Z,60.26
2023-09-14T05:02:36.393Z,60.42
2023-09-14T05:03:36.415Z,70.90
2023-09-14T05:04:36.503Z,56.88
2023-09-14T05:05:36.346Z,64.29
2023-09-14T05:06:36.365Z,68.80
2023-09-14T05:07:36.330Z,60.26
2023-09-14T05:08:36.353Z,57.36
2023-09-14T05:09:36.370Z,58.01
2023-09-14T05:10:36.434Z,68.00
2023-09-14T05:11:36.304Z,70.09
2023-09-14T05:12:36.350Z,62.68
2023-09-14T05:13:36.318Z,64.45
2023-09-14T05:14:36.282Z,60.91
2023-09-14T05:15:36.293Z,69.93
2023-09-14T05:16:36.329Z,68.80
2023-09-14T05:17:36.336Z,68.16
2023-09-14T05:18:36.304Z,78.15
2023-09-14T05:19:36.279Z,72.35
2023-09-14T05:20:36.272Z,63.49
2023-09-14T05:21:36.252Z,66.06
2023-09-14T05:22:36.301Z,61.71
2023-09-14T05:23:36.239Z,70.58
2023-09-14T05:24:36.221Z,65.10
2023-09-14T05:25:36.230Z,66.87
2023-09-14T05:26:36.289Z,64.45
2023-09-14T05:27:36.190Z,60.42
2023-09-14T05:28:36.267Z,68.16
2023-09-14T05:29:36.218Z,60.10
2023-09-14T05:30:36.228Z,58.01
2023-09-14T05:31:36.238Z,60.42
2023-09-14T05:32:36.216Z,67.51
2023-09-14T05:33:36.150Z,70.90
2023-09-14T05:34:36.220Z,65.58
2023-09-14T05:35:36.164Z,67.35
2023-09-14T05:36:36.147Z,67.35
2023-09-14T05:37:36.143Z,64.78
2023-09-14T05:38:36.118Z,71.38
2023-09-14T05:39:36.114Z,72.03
2023-09-14T05:40:36.165Z,67.84
2023-09-14T05:41:36.115Z,64.94
2023-09-14T05:42:36.109Z,70.58
2023-09-14T05:43:36.117Z,67.19
2023-09-14T05:44:36.102Z,73.64
2023-09-14T05:45:36.106Z,68.00
2023-09-14T05:46:36.175Z,63.97
2023-09-14T05:47:36.093Z,70.25
2023-09-14T05:48:36.078Z,70.09
2023-09-14T05:49:36.053Z,60.91
2023-09-14T05:50:36.051Z,71.38
2023-09-14T05:51:36.059Z,65.58
2023-09-14T05:52:39.186Z,64.61
2023-09-14T05:53:36.018Z,76.22
2023-09-14T05:54:36.040Z,64.78
2023-09-14T05:55:36.010Z,66.87
2023-09-14T05:56:36.042Z,71.06
2023-09-14T05:57:36.021Z,65.26
2023-09-14T05:58:36.070Z,68.32
2023-09-14T05:59:35.991Z,67.19
2023-09-14T06:00:35.985Z,65.26
2023-09-14T06:01:36.010Z,70.90
2023-09-14T06:02:35.971Z,67.35
2023-09-14T06:03:35.979Z,68.32
2023-09-14T06:04:36.038Z,67.03
2023-09-14T06:05:35.981Z,64.94
2023-09-14T06:06:35.936Z,64.61
2023-09-14T06:07:35.927Z,71.87
2023-09-14T06:08:35.906Z,61.07
2023-09-14T06:09:35.953Z,67.84
2023-09-14T06:10:35.965Z,68.80
2023-09-14T06:11:35.902Z,64.13
2023-09-14T06:12:35.886Z,69.13
2023-09-14T06:13:35.902Z,64.78
2023-09-14T06:14:35.878Z,66.39
2023-09-14T06:15:35.856Z,67.68
2023-09-14T06:16:35.993Z,69.93
2023-09-14T06:17:35.861Z,69.77
2023-09-14T06:18:35.868Z,69.29
2023-09-14T06:19:35.847Z,67.19
2023-09-14T06:20:35.843Z,72.51
2023-09-14T06:21:35.829Z,58.17
2023-09-14T06:22:35.836Z,65.74
2023-09-14T06:23:35.810Z,64.61
2023-09-14T06:24:35.834Z,61.87
2023-09-14T06:25:35.795Z,73.15
2023-09-14T06:26:35.811Z,75.25
2023-09-14T06:27:35.774Z,73.15
2023-09-14T06:28:35.818Z,67.03
2023-09-14T06:29:35.769Z,69.45
2023-09-14T06:30:35.784Z,65.90
2023-09-14T06:31:35.795Z,65.74
2023-09-14T06:32:35.792Z,61.71
2023-09-14T06:33:35.781Z,62.36
2023-09-14T06:34:35.807Z,69.45
2023-09-14T06:35:35.873Z,70.74
2023-09-14T06:36:35.723Z,66.55
2023-09-14T06:37:35.729Z,66.06
2023-09-14T06:38:35.699Z,66.71
2023-09-14T06:39:35.709Z,63.33
2023-09-14T06:40:35.744Z,67.51
2023-09-14T06:41:35.676Z,65.74
2023-09-14T06:42:35.707Z,64.13
2023-09-14T06:43:35.680Z,62.52
2023-09-14T06:44:35.661Z,75.57
2023-09-14T06:45:35.712Z,75.25
2023-09-14T06:46:35.837Z,76.22
2023-09-14T06:47:35.699Z,76.70
2023-09-14T06:48:35.636Z,68.96
2023-09-14T06:49:35.623Z,66.55
2023-09-14T06:50:35.650Z,72.99
2023-09-14T06:51:35.647Z,71.06
2023-09-14T06:52:35.663Z,74.12
2023-09-14T06:53:35.612Z,76.22
2023-09-14T06:54:35.615Z,73.15
2023-09-14T06:55:35.591Z,76.54
2023-09-14T06:56:35.582Z,69.61
2023-09-14T06:57:35.579Z,75.73
2023-09-14T06:58:35.688Z,78.31
2023-09-14T06:59:35.630Z,69.77
2023-09-14T07:00:35.572Z,74.93
2023-09-14T07:01:35.632Z,76.38
2023-09-14T07:02:37.643Z,66.71
2023-09-14T07:03:35.589Z,60.75
2023-09-14T07:04:35.624Z,69.29
2023-09-14T07:05:35.530Z,64.29
2023-09-14T07:06:35.513Z,71.87
2023-09-14T07:07:35.506Z,64.94
2023-09-14T07:08:35.493Z,62.36
2023-09-14T07:09:35.487Z,64.13
2023-09-14T07:10:35.521Z,66.06
2023-09-14T07:11:35.474Z,66.55
2023-09-14T07:12:35.453Z,57.69
2023-09-14T07:13:35.457Z,63.81
2023-09-14T07:14:35.459Z,66.87
2023-09-14T07:15:35.439Z,64.13
2023-09-14T07:16:35.549Z,65.10
2023-09-14T07:17:35.469Z,61.39
2023-09-14T07:18:35.415Z,72.67
2023-09-14T07:19:35.412Z,64.29
2023-09-14T07:20:35.430Z,65.26
2023-09-14T07:21:35.392Z,60.75
2023-09-14T07:22:35.435Z,73.96
2023-09-14T07:23:35.373Z,73.64
2023-09-14T07:24:35.360Z,72.99
2023-09-14T07:25:35.373Z,74.28
2023-09-14T07:26:35.358Z,64.45
2023-09-14T07:27:35.360Z,64.94
2023-09-14T07:28:35.390Z,60.91
2023-09-14T07:29:35.341Z,62.52
2023-09-14T07:30:35.324Z,72.35
2023-09-14T07:31:35.424Z,72.03
2023-09-14T07:32:35.384Z,64.13
2023-09-14T07:33:35.320Z,65.42
2023-09-14T07:34:35.334Z,67.35
2023-09-14T07:35:35.301Z,75.25
2023-09-14T07:36:35.310Z,70.25
2023-09-14T07:37:35.306Z,75.41
2023-09-14T07:38:35.266Z,74.12
2023-09-14T07:39:35.278Z,74.28
2023-09-14T07:40:35.323Z,73.15
2023-09-14T07:41:35.270Z,65.26
2023-09-14T07:42:35.276Z,65.42
2023-09-14T07:43:35.246Z,66.55
2023-09-14T07:44:35.242Z,65.42
2023-09-14T07:45:35.341Z,67.51
2023-09-14T07:46:35.342Z,58.01
2023-09-14T07:47:35.241Z,60.91
2023-09-14T07:48:35.203Z,69.29
2023-09-14T07:49:35.192Z,72.99
2023-09-14T07:50:35.204Z,67.51
2023-09-14T07:51:35.187Z,62.36
2023-09-14T07:52:35.212Z,71.06
2023-09-14T07:53:35.222Z,66.39
2023-09-14T07:54:35.164Z,64.78
2023-09-14T07:55:35.169Z,56.24
2023-09-14T07:56:35.185Z,62.84
2023-09-14T07:57:35.168Z,60.10
2023-09-14T07:58:35.184Z,64.94
2023-09-14T07:59:35.129Z,66.06
2023-09-14T08:00:36.720Z,63.16
2023-09-14T08:01:35.109Z,74.44
2023-09-14T08:03:36.218Z,65.74
2023-09-14T08:04:35.250Z,65.90
2023-09-14T08:05:35.146Z,65.74
2023-09-14T08:06:35.072Z,74.44
2023-09-14T08:07:35.089Z,73.80
2023-09-14T08:08:35.064Z,72.83
2023-09-14T08:09:35.141Z,73.15
2023-09-14T08:10:35.089Z,73.80
2023-09-14T08:11:35.062Z,68.16
2023-09-14T08:12:35.101Z,59.94
2023-09-14T08:13:35.096Z,63.49
2023-09-14T08:14:35.028Z,67.35
2023-09-14T08:15:35.109Z,62.52
2023-09-14T08:16:35.120Z,56.56
2023-09-14T08:17:35.069Z,57.20
2023-09-14T08:18:35.017Z,71.38
2023-09-14T08:19:35.009Z,73.64
2023-09-14T08:20:34.989Z,65.58
2023-09-14T08:21:35.048Z,66.23
2023-09-14T08:22:34.975Z,65.74
2023-09-14T08:23:34.960Z,64.45
2023-09-14T08:24:34.989Z,64.45
2023-09-14T08:25:34.940Z,66.87
2023-09-14T08:26:34.940Z,60.75
2023-09-14T08:27:34.972Z,60.42
2023-09-14T08:28:34.952Z,67.19
2023-09-14T08:29:34.943Z,64.94
2023-09-14T08:30:34.924Z,58.97
2023-09-14T08:31:35.152Z,64.29
2023-09-14T08:32:35.007Z,63.49
2023-09-14T08:33:34.954Z,73.48
2023-09-14T08:34:34.890Z,72.67
2023-09-14T08:35:34.888Z,71.54
2023-09-14T08:36:34.871Z,72.35
2023-09-14T08:37:34.891Z,72.67
2023-09-14T08:38:34.874Z,70.58
2023-09-14T08:39:34.913Z,62.36
2023-09-14T08:40:34.872Z,62.20
2023-09-14T08:41:34.843Z,60.59
2023-09-14T08:42:34.839Z,58.17
2023-09-14T08:43:35.488Z,71.06
2023-09-14T08:44:34.803Z,71.06
2023-09-14T08:45:34.871Z,70.58
2023-09-14T08:46:34.844Z,65.42
2023-09-14T08:47:34.824Z,67.19
2023-09-14T08:48:34.778Z,64.13
2023-09-14T08:49:34.779Z,61.55
2023-09-14T08:50:34.774Z,60.10
2023-09-14T08:51:34.803Z,71.54
2023-09-14T08:52:34.759Z,72.67
2023-09-14T08:53:34.770Z,73.80
2023-09-14T08:54:34.742Z,72.03
2023-09-14T08:55:34.760Z,70.90
2023-09-14T08:56:34.946Z,64.29
2023-09-14T08:57:34.772Z,60.10
2023-09-14T08:58:34.738Z,62.84
2023-09-14T08:59:34.723Z,61.23
2023-09-14T09:00:34.746Z,71.06
2023-09-14T09:01:34.795Z,73.80
2023-09-14T09:02:34.719Z,70.90
2023-09-14T09:03:36.731Z,71.06
2023-09-14T09:04:34.716Z,76.22
2023-09-14T09:05:34.719Z,72.67
2023-09-14T09:06:34.795Z,69.13
2023-09-14T09:07:34.643Z,73.96
2023-09-14T09:08:34.650Z,65.10
2023-09-14T09:09:34.693Z,63.97
2023-09-14T09:10:34.652Z,62.68
2023-09-14T09:11:34.627Z,71.87
2023-09-14T09:12:34.632Z,69.13
2023-09-14T09:13:34.689Z,67.51
2023-09-14T09:14:34.607Z,62.20
2023-09-14T09:15:34.662Z,63.49
2023-09-14T09:16:34.617Z,60.75
2023-09-14T09:17:34.607Z,63.65
2023-09-14T09:18:34.613Z,56.40
2023-09-14T09:19:34.679Z,69.93
2023-09-14T09:20:34.632Z,63.16
2023-09-14T09:21:34.598Z,60.75
2023-09-14T09:22:34.556Z,60.59
2023-09-14T09:23:34.559Z,59.46
2023-09-14T09:24:34.531Z,62.36
2023-09-14T09:25:34.527Z,65.10
2023-09-14T09:26:34.510Z,61.23
2023-09-14T09:27:34.574Z,62.52
2023-09-14T09:28:34.498Z,63.49
2023-09-14T09:29:34.520Z,65.74
2023-09-14T09:30:36.864Z,66.39
2023-09-14T09:31:34.504Z,67.68
2023-09-14T09:32:34.558Z,58.01
2023-09-14T09:33:34.526Z,61.55
2023-09-14T09:34:34.475Z,68.00
2023-09-14T09:35:34.450Z,63.81
2023-09-14T09:36:34.457Z,58.33
2023-09-14T09:37:34.438Z,61.55
2023-09-14T09:38:34.430Z,62.04
2023-09-14T09:39:34.478Z,59.14
2023-09-14T09:40:34.479Z,62.20
2023-09-14T09:41:34.397Z,61.07
2023-09-14T09:42:34.399Z,70.42
2023-09-14T09:43:34.412Z,64.78
2023-09-14T09:44:34.376Z,66.23
2023-09-14T09:45:34.456Z,70.25
2023-09-14T09:46:34.481Z,67.19
2023-09-14T09:47:34.413Z,60.75
2023-09-14T09:48:34.356Z,65.10
2023-09-14T09:49:34.422Z,71.70
2023-09-14T09:50:34.394Z,68.32
2023-09-14T09:51:34.387Z,66.39
2023-09-14T09:52:34.432Z,69.61
2023-09-14T09:53:34.361Z,63.33
2023-09-14T09:54:34.350Z,62.52
2023-09-14T09:55:34.405Z,60.59
2023-09-14T09:56:34.353Z,62.52
2023-09-14T09:57:34.331Z,66.06
2023-09-14T09:58:34.405Z,65.10
2023-09-14T09:59:34.315Z,69.13
2023-09-14T10:00:34.348Z,62.36
2023-09-14T10:01:34.367Z,64.78
2023-09-14T10:02:34.387Z,60.91
2023-09-14T10:03:34.451Z,63.65
2023-09-14T10:04:34.317Z,76.22
2023-09-14T10:05:34.315Z,73.32
2023-09-14T10:06:34.261Z,61.39
2023-09-14T10:07:34.256Z,73.15
2023-09-14T10:08:34.278Z,72.03
2023-09-14T10:09:34.270Z,72.35
2023-09-14T10:10:34.225Z,72.35
2023-09-14T10:11:34.196Z,70.42
2023-09-14T10:12:34.188Z,62.68
2023-09-14T10:13:34.190Z,71.87
2023-09-14T10:14:34.213Z,73.15
2023-09-14T10:15:34.221Z,68.16
2023-09-14T10:16:34.219Z,62.84
2023-09-14T10:17:34.185Z,72.67
2023-09-14T10:18:34.141Z,73.64
2023-09-14T10:19:34.461Z,60.10
2023-09-14T10:20:34.131Z,62.68
2023-09-14T10:21:34.210Z,61.55
2023-09-14T10:22:34.127Z,69.61
2023-09-14T10:23:34.113Z,69.77
2023-09-14T10:24:34.098Z,61.23
2023-09-14T10:25:34.121Z,68.48
2023-09-14T10:26:34.072Z,71.54
2023-09-14T10:27:34.140Z,69.93
2023-09-14T10:28:34.080Z,64.29
2023-09-14T10:29:34.090Z,68.16
2023-09-14T10:30:34.077Z,70.58
2023-09-14T10:31:34.178Z,63.33
2023-09-14T10:32:34.111Z,61.23
2023-09-14T10:33:34.090Z,60.75
2023-09-14T10:34:34.033Z,58.49
2023-09-14T10:35:34.019Z,59.30
2023-09-14T10:36:34.046Z,63.33
2023-09-14T10:37:34.089Z,61.39
2023-09-14T10:38:33.993Z,66.39
2023-09-14T10:39:34.059Z,58.65
2023-09-14T10:40:33.999Z,60.59
2023-09-14T10:41:33.970Z,60.75
2023-09-14T10:42:33.972Z,62.68
2023-09-14T10:43:33.975Z,66.87
2023-09-14T10:44:33.960Z,62.68
2023-09-14T10:45:33.995Z,63.33
2023-09-14T10:46:34.133Z,66.55
2023-09-14T10:47:33.940Z,64.13
2023-09-14T10:48:33.926Z,65.26
2023-09-14T10:49:33.965Z,67.19
2023-09-14T10:50:33.929Z,62.52
2023-09-14T10:51:33.965Z,62.52
2023-09-14T10:52:33.888Z,67.35
2023-09-14T10:53:33.887Z,68.00
2023-09-14T10:54:33.891Z,63.33
2023-09-14T10:55:33.900Z,64.45
2023-09-14T10:56:33.858Z,63.65
2023-09-14T10:57:33.904Z,64.78
2023-09-14T10:58:33.860Z,60.75
2023-09-14T10:59:33.831Z,64.94
2023-09-14T11:00:53.397Z,66.23
2023-09-14T11:01:50.158Z,59.78
2023-09-14T11:02:47.862Z,60.59
2023-09-14T11:03:34.904Z,61.71
2023-09-14T11:04:33.945Z,64.61
2023-09-14T11:05:34.398Z,61.55
2023-09-14T11:06:34.592Z,59.14
2023-09-14T11:07:34.557Z,60.42
2023-09-14T11:08:34.051Z,68.16
2023-09-14T11:09:34.235Z,62.68
2023-09-14T11:10:33.874Z,59.14
2023-09-14T11:11:33.995Z,65.74
2023-09-14T11:12:34.974Z,70.09
2023-09-14T11:13:34.876Z,61.71
2023-09-14T11:14:34.747Z,69.93
2023-09-14T11:15:33.955Z,67.51
2023-09-14T11:16:33.862Z,60.42
2023-09-14T11:17:33.812Z,63.49
2023-09-14T11:18:35.104Z,65.10
2023-09-14T11:19:48.019Z,65.26
2023-09-14T11:20:36.056Z,62.04
2023-09-14T11:21:36.440Z,63.16
2023-09-14T11:22:35.224Z,61.87
2023-09-14T11:23:34.176Z,63.00
2023-09-14T11:24:34.332Z,72.67
2023-09-14T11:25:40.646Z,61.87
2023-09-14T11:26:35.272Z,62.20
2023-09-14T11:27:34.070Z,64.94
2023-09-14T11:28:34.158Z,68.16
2023-09-14T11:29:33.786Z,68.32
2023-09-14T11:30:33.693Z,65.90
2023-09-14T11:31:48.601Z,64.45
2023-09-14T11:32:35.926Z,72.51
2023-09-14T11:33:35.811Z,63.65
2023-09-14T11:34:34.403Z,58.01
2023-09-14T11:35:34.612Z,68.48
2023-09-14T11:36:35.213Z,63.81
2023-09-14T11:37:39.328Z,62.68
2023-09-14T11:38:37.889Z,64.78
2023-09-14T11:39:36.936Z,62.52
2023-09-14T11:40:35.722Z,68.64
2023-09-14T11:41:34.225Z,63.81
2023-09-14T11:42:34.796Z,61.87
2023-09-14T11:45:35.971Z,65.26
2023-09-14T11:46:34.852Z,74.12
2023-09-14T11:47:34.886Z,66.23
2023-09-14T11:49:33.496Z,56.88
2023-09-14T11:50:33.562Z,62.68
2023-09-14T11:51:33.458Z,58.01
2023-09-14T11:52:33.446Z,56.24
2023-09-14T11:53:33.436Z,58.65
2023-09-14T11:54:33.462Z,57.04
2023-09-14T11:55:33.438Z,59.14
2023-09-14T11:56:33.496Z,57.52
2023-09-14T11:57:33.434Z,60.91
2023-09-14T11:58:33.418Z,63.65
2023-09-14T11:59:33.438Z,67.35
2023-09-14T12:00:33.449Z,58.01
2023-09-14T12:01:33.404Z,61.71
2023-09-14T12:02:33.469Z,63.81
2023-09-14T12:03:33.441Z,63.49
2023-09-14T12:04:33.468Z,64.78
2023-09-14T12:05:33.359Z,67.84
2023-09-14T12:06:33.353Z,65.10
2023-09-14T12:07:33.351Z,61.55
2023-09-14T12:08:33.402Z,64.61
2023-09-14T12:09:39.861Z,62.36
2023-09-14T12:10:34.334Z,62.84
2023-09-14T12:11:33.338Z,59.46
2023-09-14T12:12:33.374Z,72.51
2023-09-14T12:13:33.286Z,57.85
2023-09-14T12:14:33.353Z,59.78
2023-09-14T12:15:33.344Z,61.55
2023-09-14T12:16:33.453Z,63.16
2023-09-14T12:17:33.370Z,63.16
2023-09-14T12:18:33.323Z,70.09
2023-09-14T12:19:33.261Z,60.59
2023-09-14T12:20:33.279Z,61.87
2023-09-14T12:21:33.272Z,61.23
2023-09-14T12:22:33.310Z,63.49
2023-09-14T12:23:33.226Z,62.36
2023-09-14T12:24:33.208Z,67.84
2023-09-14T12:25:33.213Z,63.81
2023-09-14T12:26:33.282Z,61.23
2023-09-14T12:27:33.224Z,60.42
2023-09-14T12:28:33.172Z,64.29
2023-09-14T12:29:33.169Z,59.62
2023-09-14T12:30:33.223Z,57.20
2023-09-14T12:31:33.178Z,61.71
2023-09-14T12:32:33.306Z,63.00
2023-09-14T12:33:33.300Z,60.75
2023-09-14T12:34:33.184Z,58.65
2023-09-14T12:35:33.130Z,63.33
2023-09-14T12:36:33.154Z,60.91
2023-09-14T12:37:33.138Z,63.33
2023-09-14T12:38:45.709Z,64.45
2023-09-14T12:39:34.179Z,62.20
2023-09-14T12:40:33.092Z,66.23
2023-09-14T12:41:33.069Z,71.70
2023-09-14T12:42:33.111Z,66.87
2023-09-14T12:43:33.114Z,65.26
2023-09-14T12:44:33.123Z,59.14
2023-09-14T12:45:33.157Z,68.80
2023-09-14T12:46:33.173Z,65.90
2023-09-14T12:47:33.084Z,64.78
2023-09-14T12:48:33.054Z,67.35
2023-09-14T12:49:33.044Z,63.49
2023-09-14T12:50:33.103Z,80.57
2023-09-14T12:51:33.045Z,72.99
2023-09-14T12:52:33.055Z,63.33
2023-09-14T12:53:33.022Z,63.33
2023-09-14T12:54:33.037Z,58.97
2023-09-14T12:55:32.999Z,69.13
2023-09-14T12:56:33.088Z,65.58